createdAt,value
2017-09-15T00:04:39.177Z,0.77
2017-09-15T00:10:07.402Z,1.10
2017-09-15T00:16:00.707Z,1.00
2017-09-15T00:21:29.812Z,1.30
2017-09-15T00:26:57.965Z,0.90
2017-09-15T00:32:28.153Z,1.03
2017-09-15T00:37:57.107Z,1.17
2017-09-15T00:43:25.253Z,1.40
2017-09-15T00:48:53.410Z,1.30
2017-09-15T00:54:31.595Z,1.00
2017-09-15T01:00:00.732Z,0.90
2017-09-15T01:05:28.918Z,1.20
2017-09-15T01:10:57.071Z,1.00
2017-09-15T01:16:25.211Z,1.00
2017-09-15T01:21:57.099Z,1.23
2017-09-15T01:27:27.008Z,1.00
2017-09-15T01:32:55.215Z,1.20
2017-09-15T01:38:23.360Z,1.83
2017-09-15T01:43:51.524Z,0.97
2017-09-15T01:49:24.150Z,1.10
2017-09-15T01:54:52.382Z,1.47
2017-09-15T02:00:20.516Z,1.70
2017-09-15T02:05:48.851Z,1.30
2017-09-15T02:11:20.972Z,1.73
2017-09-15T02:16:49.130Z,1.30
2017-09-15T02:22:17.259Z,1.10
2017-09-15T02:27:46.631Z,1.00
2017-09-15T02:33:14.789Z,1.30
2017-09-15T02:38:42.946Z,1.33
2017-09-15T02:44:11.100Z,1.10
2017-09-15T02:49:40.293Z,1.30
2017-09-15T02:55:08.547Z,1.20
2017-09-15T03:00:36.715Z,1.10
2017-09-15T03:06:04.957Z,0.93
2017-09-15T03:11:33.232Z,1.23
2017-09-15T03:17:01.384Z,1.13
2017-09-15T03:22:29.534Z,1.40
2017-09-15T03:27:57.692Z,1.10
2017-09-15T03:33:25.867Z,1.23
2017-09-15T03:39:03.792Z,1.00
2017-09-15T03:44:32.724Z,1.60
2017-09-15T03:50:00.868Z,1.10
2017-09-15T03:55:29.116Z,2.70
2017-09-15T04:00:58.962Z,2.73
2017-09-15T04:06:27.108Z,2.40
2017-09-15T04:11:55.271Z,1.40
2017-09-15T04:17:23.410Z,1.40
2017-09-15T04:23:02.166Z,1.60
2017-09-15T04:28:30.317Z,2.20
2017-09-15T04:33:58.593Z,2.43
2017-09-15T04:39:26.728Z,3.20
2017-09-15T04:44:54.855Z,2.30
2017-09-15T04:50:22.985Z,1.57
2017-09-15T04:55:51.130Z,1.97
2017-09-15T05:01:20.039Z,1.70
2017-09-15T05:06:48.969Z,1.77
2017-09-15T05:12:17.145Z,1.53
2017-09-15T05:17:45.345Z,1.70
2017-09-15T05:23:13.510Z,1.90
2017-09-15T05:28:41.680Z,1.80
2017-09-15T05:34:09.832Z,2.30
2017-09-15T05:39:38.755Z,1.67
2017-09-15T05:45:07.659Z,2.07
2017-09-15T05:50:35.811Z,2.10
2017-09-15T05:56:03.970Z,2.50
2017-09-15T06:01:32.145Z,1.57
2017-09-15T06:07:00.341Z,1.60
2017-09-15T06:12:28.518Z,1.60
2017-09-15T06:17:56.715Z,1.10
2017-09-15T06:23:24.833Z,1.53
2017-09-15T06:28:53.030Z,1.13
2017-09-15T06:34:21.183Z,1.90
2017-09-15T06:39:49.320Z,1.60
2017-09-15T06:45:17.466Z,1.70
2017-09-15T06:50:46.387Z,1.70
2017-09-15T06:56:14.530Z,1.60
2017-09-15T07:01:42.663Z,1.07
2017-09-15T07:07:11.628Z,1.40
2017-09-15T07:12:40.541Z,1.23
2017-09-15T07:18:08.698Z,1.60
2017-09-15T07:23:36.844Z,1.57
2017-09-15T07:29:05.019Z,1.20
2017-09-15T07:34:33.192Z,1.10
2017-09-15T07:40:01.440Z,2.03
2017-09-15T07:45:29.598Z,1.20
2017-09-15T07:50:57.804Z,1.47
2017-09-15T07:56:26.734Z,1.70
2017-09-15T08:01:54.892Z,1.50
2017-09-15T08:07:23.076Z,1.60
2017-09-15T08:12:51.230Z,1.27
2017-09-15T08:18:19.395Z,1.43
2017-09-15T08:23:47.554Z,1.40
2017-09-15T08:29:15.715Z,1.43
2017-09-15T08:34:43.906Z,1.23
2017-09-15T08:40:12.059Z,1.30
2017-09-15T08:45:40.181Z,1.23
2017-09-15T08:51:08.340Z,1.10
2017-09-15T08:56:36.527Z,1.20
2017-09-15T09:02:05.451Z,1.43
2017-09-15T09:07:33.627Z,1.57
2017-09-15T09:13:01.845Z,1.10
2017-09-15T09:18:30.021Z,1.23
2017-09-15T09:23:58.385Z,1.60
2017-09-15T09:29:26.582Z,1.20
2017-09-15T09:34:54.724Z,0.93
2017-09-15T09:40:22.904Z,1.20
2017-09-15T09:45:51.052Z,1.20
2017-09-15T09:51:19.206Z,1.77
2017-09-15T09:56:47.381Z,1.40
2017-09-15T10:02:15.534Z,1.00
2017-09-15T10:07:44.757Z,1.37
2017-09-15T10:13:12.951Z,1.47
2017-09-15T10:18:41.115Z,1.63
2017-09-15T10:24:09.268Z,1.10
2017-09-15T10:29:37.447Z,1.10
2017-09-15T10:35:05.708Z,1.20
2017-09-15T10:40:33.891Z,1.00
2017-09-15T10:46:02.158Z,1.37
2017-09-15T10:51:30.326Z,1.23
2017-09-15T10:56:59.072Z,1.10
2017-09-15T11:02:27.219Z,1.10
2017-09-15T11:07:56.152Z,1.10
2017-09-15T11:13:24.314Z,1.20
2017-09-15T11:18:52.492Z,1.20
2017-09-15T11:24:20.631Z,0.97
2017-09-15T11:29:48.811Z,1.27
2017-09-15T11:35:16.984Z,1.27
2017-09-15T11:40:45.140Z,1.40
2017-09-15T11:46:13.308Z,1.10
2017-09-15T11:51:43.145Z,1.00
2017-09-15T11:57:11.306Z,1.30
2017-09-15T12:02:39.480Z,1.00
2017-09-15T12:08:07.628Z,1.00
2017-09-15T12:13:35.810Z,1.13
2017-09-15T12:19:04.022Z,1.00
2017-09-15T12:24:32.194Z,1.23
2017-09-15T12:30:00.393Z,1.43
2017-09-15T12:35:28.592Z,1.10
2017-09-15T12:40:56.780Z,1.20
2017-09-15T12:46:24.955Z,0.97
2017-09-15T12:51:53.122Z,1.20
2017-09-15T12:57:21.271Z,1.00
2017-09-15T13:02:49.393Z,1.10
2017-09-15T13:08:17.576Z,0.97
2017-09-15T13:13:45.737Z,1.23
2017-09-15T13:19:13.886Z,1.10
2017-09-15T13:24:42.807Z,1.30
2017-09-15T13:30:10.943Z,1.27
2017-09-15T13:35:39.104Z,1.13
2017-09-15T13:41:07.258Z,1.10
2017-09-15T13:46:35.474Z,1.40
2017-09-15T13:52:03.673Z,1.33
2017-09-15T13:57:31.841Z,1.00
2017-09-15T14:03:00.020Z,1.30
2017-09-15T14:08:28.237Z,1.17
2017-09-15T14:13:56.407Z,1.50
2017-09-15T14:19:24.542Z,1.23
2017-09-15T14:24:52.691Z,1.67
2017-09-15T14:30:20.826Z,1.20
2017-09-15T14:35:49.006Z,1.10
2017-09-15T14:41:17.190Z,1.73
2017-09-15T14:46:45.369Z,1.40
2017-09-15T14:52:13.518Z,0.90
2017-09-15T14:57:41.720Z,1.03
2017-09-15T15:03:09.904Z,1.67
2017-09-15T15:08:39.991Z,1.30
2017-09-15T15:14:08.905Z,1.10
2017-09-15T15:19:37.099Z,1.40
2017-09-15T15:25:05.276Z,1.53
2017-09-15T15:30:34.218Z,1.30
2017-09-15T15:36:02.459Z,1.30
2017-09-15T15:41:30.629Z,6.27
2017-09-15T15:46:58.807Z,1.50
2017-09-15T15:52:26.987Z,1.37
2017-09-15T15:57:55.147Z,1.30
2017-09-15T16:03:23.329Z,1.63
2017-09-15T16:08:51.506Z,0.97
2017-09-15T16:14:19.651Z,1.50
2017-09-15T16:19:47.797Z,1.60
2017-09-15T16:25:15.970Z,1.73
2017-09-15T16:30:44.117Z,1.10
2017-09-15T16:36:12.268Z,1.40
2017-09-15T16:41:46.041Z,1.60
2017-09-15T16:47:20.591Z,1.37
2017-09-15T16:52:48.831Z,1.57
2017-09-15T16:58:16.987Z,1.77
2017-09-15T17:03:45.143Z,2.03
2017-09-15T17:09:13.311Z,2.00
2017-09-15T17:14:41.534Z,2.70
2017-09-15T17:20:10.036Z,3.30
2017-09-15T17:25:38.181Z,3.17
2017-09-15T17:31:06.343Z,2.90
2017-09-15T17:36:34.540Z,2.20
2017-09-15T17:42:02.764Z,2.20
2017-09-15T17:47:31.155Z,2.47
2017-09-15T17:52:59.356Z,2.50
2017-09-15T17:58:28.286Z,2.77
2017-09-15T18:03:56.519Z,2.60
2017-09-15T18:09:24.813Z,2.90
2017-09-15T18:14:52.967Z,2.80
2017-09-15T18:20:21.131Z,3.20
2017-09-15T18:25:49.345Z,3.43
2017-09-15T18:31:17.539Z,3.70
2017-09-15T18:36:50.521Z,4.40
2017-09-15T18:42:18.718Z,13.37
2017-09-15T18:47:46.919Z,6.00
2017-09-15T18:53:15.117Z,4.00
2017-09-15T18:58:43.566Z,4.43
2017-09-15T19:04:11.746Z,3.73
2017-09-15T19:09:39.949Z,4.20
2017-09-15T19:15:08.277Z,4.07
2017-09-15T19:20:37.221Z,4.20
2017-09-15T19:26:06.256Z,4.43
2017-09-15T19:31:35.262Z,3.80
2017-09-15T19:37:03.664Z,7.13
2017-09-15T19:42:32.768Z,6.83
2017-09-15T19:48:01.003Z,6.70
2017-09-15T19:53:30.491Z,6.00
2017-09-15T19:59:00.354Z,6.23
2017-09-15T20:04:28.737Z,5.50
2017-09-15T20:09:56.994Z,6.50
2017-09-15T20:15:25.271Z,5.67
2017-09-15T20:20:53.591Z,5.17
2017-09-15T20:26:21.977Z,6.60
2017-09-15T20:31:50.163Z,4.60
2017-09-15T20:37:18.334Z,5.90
2017-09-15T20:42:47.278Z,5.67
2017-09-15T20:48:15.452Z,6.27
2017-09-15T20:53:44.370Z,5.50
2017-09-15T20:59:12.623Z,5.40
2017-09-15T21:04:40.797Z,5.07
2017-09-15T21:10:08.970Z,5.10
2017-09-15T21:15:37.145Z,6.03
2017-09-15T21:21:05.640Z,5.10
2017-09-15T21:26:34.314Z,4.30
2017-09-15T21:32:02.500Z,3.93
2017-09-15T21:37:30.876Z,3.20
2017-09-15T21:42:59.633Z,4.23
2017-09-15T21:48:27.800Z,5.53
2017-09-15T21:53:55.968Z,5.93
2017-09-15T21:59:26.278Z,4.80
2017-09-15T22:04:54.481Z,5.50
2017-09-15T22:10:23.411Z,5.07
2017-09-15T22:15:51.729Z,4.53
2017-09-15T22:21:19.973Z,5.57
2017-09-15T22:26:48.888Z,5.17
2017-09-15T22:32:17.021Z,5.00
2017-09-15T22:37:45.176Z,4.70
2017-09-15T22:43:14.134Z,4.90
2017-09-15T22:48:44.223Z,4.83
2017-09-15T23:00:13.125Z,5.30
2017-09-15T23:05:42.046Z,4.20
2017-09-15T23:11:10.221Z,4.43
2017-09-15T23:16:38.377Z,4.30
2017-09-15T23:22:06.514Z,5.00
2017-09-15T23:27:34.706Z,5.03
2017-09-15T23:33:02.905Z,4.00
2017-09-15T23:38:31.818Z,4.50
2017-09-15T23:44:00.831Z,4.23
2017-09-15T23:49:29.098Z,3.87
2017-09-15T23:54:57.244Z,3.80
